sensor_id;sensor_type;location;lat;lon;timestamp;P1;durP1;ratioP1;P2;durP2;ratioP2
9968;SDS011;5025;48.890;9.278;2022-09-09T00:01:37;1.17;;;1.13;;
9968;SDS011;5025;48.890;9.278;2022-09-09T00:04:27;1.60;;;1.50;;
9968;SDS011;5025;48.890;9.278;2022-09-09T00:10:00;1.50;;;1.40;;
9968;SDS011;5025;48.890;9.278;2022-09-09T00:15:37;2.43;;;1.23;;
9968;SDS011;5025;48.890;9.278;2022-09-09T00:20:45;1.33;;;1.23;;
9968;SDS011;5025;48.890;9.278;2022-09-09T00:28:23;1.67;;;1.20;;
9968;SDS011;5025;48.890;9.278;2022-09-09T00:30:51;2.33;;;1.10;;
9968;SDS011;5025;48.890;9.278;2022-09-09T00:33:19;1.77;;;1.47;;
9968;SDS011;5025;48.890;9.278;2022-09-09T00:35:48;3.13;;;1.40;;
9968;SDS011;5025;48.890;9.278;2022-09-09T00:38:24;1.57;;;1.33;;
9968;SDS011;5025;48.890;9.278;2022-09-09T00:41:11;1.87;;;1.20;;
9968;SDS011;5025;48.890;9.278;2022-09-09T00:43:46;1.23;;;1.10;;
9968;SDS011;5025;48.890;9.278;2022-09-09T00:46:48;1.30;;;1.30;;
9968;SDS011;5025;48.890;9.278;2022-09-09T00:52:14;1.40;;;1.30;;
9968;SDS011;5025;48.890;9.278;2022-09-09T00:57:28;1.50;;;1.40;;
9968;SDS011;5025;48.890;9.278;2022-09-09T01:05:20;1.40;;;1.27;;
9968;SDS011;5025;48.890;9.278;2022-09-09T01:08:01;2.47;;;1.33;;
9968;SDS011;5025;48.890;9.278;2022-09-09T01:10:47;2.07;;;1.63;;
9968;SDS011;5025;48.890;9.278;2022-09-09T01:13:19;1.50;;;1.40;;
9968;SDS011;5025;48.890;9.278;2022-09-09T01:15:49;1.87;;;1.30;;
9968;SDS011;5025;48.890;9.278;2022-09-09T01:18:18;1.67;;;1.40;;
9968;SDS011;5025;48.890;9.278;2022-09-09T01:27:06;1.27;;;1.17;;
9968;SDS011;5025;48.890;9.278;2022-09-09T01:29:32;1.23;;;1.23;;
9968;SDS011;5025;48.890;9.278;2022-09-09T01:31:59;1.50;;;1.40;;
9968;SDS011;5025;48.890;9.278;2022-09-09T01:34:28;1.13;;;1.10;;
9968;SDS011;5025;48.890;9.278;2022-09-09T01:39:29;1.10;;;1.10;;
9968;SDS011;5025;48.890;9.278;2022-09-09T01:41:55;1.20;;;1.20;;
9968;SDS011;5025;48.890;9.278;2022-09-09T01:44:22;1.03;;;1.03;;
9968;SDS011;5025;48.890;9.278;2022-09-09T01:46:49;1.40;;;1.30;;
9968;SDS011;5025;48.890;9.278;2022-09-09T01:49:14;1.53;;;1.20;;
9968;SDS011;5025;48.890;9.278;2022-09-09T01:51:41;1.47;;;1.20;;
9968;SDS011;5025;48.890;9.278;2022-09-09T01:54:08;1.67;;;1.10;;
9968;SDS011;5025;48.890;9.278;2022-09-09T01:56:43;1.30;;;1.20;;
9968;SDS011;5025;48.890;9.278;2022-09-09T02:07:03;1.77;;;1.10;;
9968;SDS011;5025;48.890;9.278;2022-09-09T02:09:38;1.27;;;1.20;;
9968;SDS011;5025;48.890;9.278;2022-09-09T02:12:11;1.33;;;1.23;;
9968;SDS011;5025;48.890;9.278;2022-09-09T02:14:40;1.30;;;1.20;;
9968;SDS011;5025;48.890;9.278;2022-09-09T02:17:11;1.30;;;1.20;;
9968;SDS011;5025;48.890;9.278;2022-09-09T02:19:44;1.00;;;1.00;;
9968;SDS011;5025;48.890;9.278;2022-09-09T02:22:15;1.10;;;1.00;;
9968;SDS011;5025;48.890;9.278;2022-09-09T02:24:45;1.20;;;1.10;;
9968;SDS011;5025;48.890;9.278;2022-09-09T02:27:12;2.37;;;1.30;;
9968;SDS011;5025;48.890;9.278;2022-09-09T02:29:41;1.53;;;1.40;;
9968;SDS011;5025;48.890;9.278;2022-09-09T02:32:17;1.50;;;1.30;;
9968;SDS011;5025;48.890;9.278;2022-09-09T02:34:48;2.10;;;1.40;;
9968;SDS011;5025;48.890;9.278;2022-09-09T02:37:20;2.43;;;1.30;;
9968;SDS011;5025;48.890;9.278;2022-09-09T02:39:50;1.40;;;1.30;;
9968;SDS011;5025;48.890;9.278;2022-09-09T02:42:16;1.57;;;1.30;;
9968;SDS011;5025;48.890;9.278;2022-09-09T02:44:41;1.03;;;1.03;;
9968;SDS011;5025;48.890;9.278;2022-09-09T02:47:14;1.47;;;1.37;;
9968;SDS011;5025;48.890;9.278;2022-09-09T02:50:08;1.17;;;1.10;;
9968;SDS011;5025;48.890;9.278;2022-09-09T02:55:23;1.53;;;1.10;;
9968;SDS011;5025;48.890;9.278;2022-09-09T02:57:54;1.00;;;1.00;;
9968;SDS011;5025;48.890;9.278;2022-09-09T03:00:27;1.20;;;1.10;;
9968;SDS011;5025;48.890;9.278;2022-09-09T03:02:53;1.40;;;1.30;;
9968;SDS011;5025;48.890;9.278;2022-09-09T03:05:19;1.13;;;1.13;;
9968;SDS011;5025;48.890;9.278;2022-09-09T03:07:45;2.27;;;1.30;;
9968;SDS011;5025;48.890;9.278;2022-09-09T03:10:11;1.10;;;1.10;;
9968;SDS011;5025;48.890;9.278;2022-09-09T03:12:36;1.07;;;0.90;;
9968;SDS011;5025;48.890;9.278;2022-09-09T03:15:02;1.07;;;1.00;;
9968;SDS011;5025;48.890;9.278;2022-09-09T03:17:27;1.63;;;1.17;;
9968;SDS011;5025;48.890;9.278;2022-09-09T03:19:53;1.10;;;1.10;;
9968;SDS011;5025;48.890;9.278;2022-09-09T03:22:20;2.90;;;1.10;;
9968;SDS011;5025;48.890;9.278;2022-09-09T03:24:46;1.17;;;1.07;;
9968;SDS011;5025;48.890;9.278;2022-09-09T03:27:12;1.10;;;1.00;;
9968;SDS011;5025;48.890;9.278;2022-09-09T03:29:39;1.20;;;1.10;;
9968;SDS011;5025;48.890;9.278;2022-09-09T03:32:04;1.10;;;1.10;;
9968;SDS011;5025;48.890;9.278;2022-09-09T03:34:30;1.17;;;1.10;;
9968;SDS011;5025;48.890;9.278;2022-09-09T03:36:55;2.30;;;1.30;;
9968;SDS011;5025;48.890;9.278;2022-09-09T03:39:21;1.73;;;1.30;;
9968;SDS011;5025;48.890;9.278;2022-09-09T03:41:46;1.97;;;1.27;;
9968;SDS011;5025;48.890;9.278;2022-09-09T03:44:13;1.63;;;1.07;;
9968;SDS011;5025;48.890;9.278;2022-09-09T03:46:38;1.33;;;1.23;;
9968;SDS011;5025;48.890;9.278;2022-09-09T03:49:04;1.37;;;1.27;;
9968;SDS011;5025;48.890;9.278;2022-09-09T03:51:29;2.17;;;1.23;;
9968;SDS011;5025;48.890;9.278;2022-09-09T03:53:55;3.10;;;1.33;;
9968;SDS011;5025;48.890;9.278;2022-09-09T03:56:21;1.60;;;1.37;;
9968;SDS011;5025;48.890;9.278;2022-09-09T03:58:47;1.40;;;1.30;;
9968;SDS011;5025;48.890;9.278;2022-09-09T04:01:12;2.50;;;1.20;;
9968;SDS011;5025;48.890;9.278;2022-09-09T04:03:39;1.40;;;1.30;;
9968;SDS011;5025;48.890;9.278;2022-09-09T04:06:07;1.60;;;1.13;;
9968;SDS011;5025;48.890;9.278;2022-09-09T04:08:34;1.20;;;1.10;;
9968;SDS011;5025;48.890;9.278;2022-09-09T04:11:01;1.60;;;1.20;;
9968;SDS011;5025;48.890;9.278;2022-09-09T04:13:30;1.30;;;1.20;;
9968;SDS011;5025;48.890;9.278;2022-09-09T04:15:57;1.30;;;1.20;;
9968;SDS011;5025;48.890;9.278;2022-09-09T04:18:24;1.40;;;1.30;;
9968;SDS011;5025;48.890;9.278;2022-09-09T04:20:51;1.50;;;1.30;;
9968;SDS011;5025;48.890;9.278;2022-09-09T04:23:18;1.47;;;1.00;;
9968;SDS011;5025;48.890;9.278;2022-09-09T04:25:49;2.17;;;1.30;;
9968;SDS011;5025;48.890;9.278;2022-09-09T04:28:16;1.03;;;0.97;;
9968;SDS011;5025;48.890;9.278;2022-09-09T04:30:43;1.90;;;1.17;;
9968;SDS011;5025;48.890;9.278;2022-09-09T04:33:10;1.00;;;1.00;;
9968;SDS011;5025;48.890;9.278;2022-09-09T04:35:36;1.40;;;1.30;;
9968;SDS011;5025;48.890;9.278;2022-09-09T04:38:03;2.00;;;1.20;;
9968;SDS011;5025;48.890;9.278;2022-09-09T04:40:30;1.33;;;1.23;;
9968;SDS011;5025;48.890;9.278;2022-09-09T04:43:00;1.90;;;1.53;;
9968;SDS011;5025;48.890;9.278;2022-09-09T04:45:29;1.20;;;1.10;;
9968;SDS011;5025;48.890;9.278;2022-09-09T04:47:55;1.70;;;1.30;;
9968;SDS011;5025;48.890;9.278;2022-09-09T04:50:22;3.43;;;1.20;;
9968;SDS011;5025;48.890;9.278;2022-09-09T04:52:47;1.47;;;1.37;;
9968;SDS011;5025;48.890;9.278;2022-09-09T04:55:13;1.20;;;1.10;;
9968;SDS011;5025;48.890;9.278;2022-09-09T04:57:39;1.20;;;1.10;;
9968;SDS011;5025;48.890;9.278;2022-09-09T05:00:05;2.37;;;1.30;;
9968;SDS011;5025;48.890;9.278;2022-09-09T05:02:31;1.63;;;1.30;;
9968;SDS011;5025;48.890;9.278;2022-09-09T05:04:57;1.13;;;1.13;;
9968;SDS011;5025;48.890;9.278;2022-09-09T05:07:23;1.53;;;1.30;;
9968;SDS011;5025;48.890;9.278;2022-09-09T05:09:48;1.40;;;1.30;;
9968;SDS011;5025;48.890;9.278;2022-09-09T05:12:14;1.30;;;1.20;;
9968;SDS011;5025;48.890;9.278;2022-09-09T05:14:41;1.70;;;1.23;;
9968;SDS011;5025;48.890;9.278;2022-09-09T05:17:10;1.60;;;1.30;;
9968;SDS011;5025;48.890;9.278;2022-09-09T05:19:35;1.10;;;1.00;;
9968;SDS011;5025;48.890;9.278;2022-09-09T05:22:01;1.20;;;1.10;;
9968;SDS011;5025;48.890;9.278;2022-09-09T05:24:26;2.10;;;1.30;;
9968;SDS011;5025;48.890;9.278;2022-09-09T05:26:52;1.87;;;1.40;;
9968;SDS011;5025;48.890;9.278;2022-09-09T05:29:17;1.97;;;1.17;;
9968;SDS011;5025;48.890;9.278;2022-09-09T05:31:44;2.50;;;1.30;;
9968;SDS011;5025;48.890;9.278;2022-09-09T05:34:10;1.07;;;1.07;;
9968;SDS011;5025;48.890;9.278;2022-09-09T05:36:36;1.43;;;1.33;;
9968;SDS011;5025;48.890;9.278;2022-09-09T05:39:02;1.93;;;1.17;;
9968;SDS011;5025;48.890;9.278;2022-09-09T05:41:27;1.10;;;1.10;;
9968;SDS011;5025;48.890;9.278;2022-09-09T05:43:53;1.20;;;1.20;;
9968;SDS011;5025;48.890;9.278;2022-09-09T05:46:20;1.30;;;1.20;;
9968;SDS011;5025;48.890;9.278;2022-09-09T05:48:47;1.23;;;1.20;;
9968;SDS011;5025;48.890;9.278;2022-09-09T05:51:15;1.30;;;1.20;;
9968;SDS011;5025;48.890;9.278;2022-09-09T05:53:43;1.47;;;1.20;;
9968;SDS011;5025;48.890;9.278;2022-09-09T05:56:23;1.40;;;1.30;;
9968;SDS011;5025;48.890;9.278;2022-09-09T05:58:53;1.27;;;1.17;;
9968;SDS011;5025;48.890;9.278;2022-09-09T06:01:24;1.20;;;1.20;;
9968;SDS011;5025;48.890;9.278;2022-09-09T06:03:51;1.33;;;1.10;;
9968;SDS011;5025;48.890;9.278;2022-09-09T06:06:18;1.97;;;1.27;;
9968;SDS011;5025;48.890;9.278;2022-09-09T06:08:52;1.37;;;1.27;;
9968;SDS011;5025;48.890;9.278;2022-09-09T06:11:20;2.30;;;1.40;;
9968;SDS011;5025;48.890;9.278;2022-09-09T06:13:47;2.20;;;1.20;;
9968;SDS011;5025;48.890;9.278;2022-09-09T06:16:16;0.93;;;0.93;;
9968;SDS011;5025;48.890;9.278;2022-09-09T06:18:43;1.43;;;1.30;;
9968;SDS011;5025;48.890;9.278;2022-09-09T06:21:09;1.30;;;1.13;;
9968;SDS011;5025;48.890;9.278;2022-09-09T06:23:38;1.27;;;1.20;;
9968;SDS011;5025;48.890;9.278;2022-09-09T06:26:12;1.13;;;1.10;;
9968;SDS011;5025;48.890;9.278;2022-09-09T06:28:47;1.57;;;1.23;;
9968;SDS011;5025;48.890;9.278;2022-09-09T06:31:15;1.33;;;1.10;;
9968;SDS011;5025;48.890;9.278;2022-09-09T06:33:49;1.77;;;1.50;;
9968;SDS011;5025;48.890;9.278;2022-09-09T06:36:22;1.40;;;1.30;;
9968;SDS011;5025;48.890;9.278;2022-09-09T06:38:52;1.60;;;1.30;;
9968;SDS011;5025;48.890;9.278;2022-09-09T06:41:18;3.20;;;1.40;;
9968;SDS011;5025;48.890;9.278;2022-09-09T06:43:45;1.23;;;1.13;;
9968;SDS011;5025;48.890;9.278;2022-09-09T06:46:15;2.97;;;1.20;;
9968;SDS011;5025;48.890;9.278;2022-09-09T06:48:41;1.10;;;1.00;;
9968;SDS011;5025;48.890;9.278;2022-09-09T06:51:08;1.30;;;1.20;;
9968;SDS011;5025;48.890;9.278;2022-09-09T06:53:36;1.40;;;1.23;;
9968;SDS011;5025;48.890;9.278;2022-09-09T06:56:17;1.23;;;1.13;;
9968;SDS011;5025;48.890;9.278;2022-09-09T06:58:42;1.60;;;1.20;;
9968;SDS011;5025;48.890;9.278;2022-09-09T07:01:13;1.57;;;1.30;;
9968;SDS011;5025;48.890;9.278;2022-09-09T07:03:40;1.57;;;1.20;;
9968;SDS011;5025;48.890;9.278;2022-09-09T07:06:13;1.40;;;1.10;;
9968;SDS011;5025;48.890;9.278;2022-09-09T07:08:40;1.67;;;1.40;;
9968;SDS011;5025;48.890;9.278;2022-09-09T07:11:06;1.40;;;1.30;;
9968;SDS011;5025;48.890;9.278;2022-09-09T07:13:32;1.30;;;1.10;;
9968;SDS011;5025;48.890;9.278;2022-09-09T07:16:05;1.63;;;1.20;;
9968;SDS011;5025;48.890;9.278;2022-09-09T07:18:31;1.17;;;1.17;;
9968;SDS011;5025;48.890;9.278;2022-09-09T07:20:58;1.90;;;1.10;;
9968;SDS011;5025;48.890;9.278;2022-09-09T07:23:24;1.30;;;1.20;;
9968;SDS011;5025;48.890;9.278;2022-09-09T07:25:49;2.07;;;1.43;;
9968;SDS011;5025;48.890;9.278;2022-09-09T07:28:15;1.73;;;1.40;;
9968;SDS011;5025;48.890;9.278;2022-09-09T07:30:41;4.50;;;1.50;;
9968;SDS011;5025;48.890;9.278;2022-09-09T07:33:08;1.53;;;1.20;;
9968;SDS011;5025;48.890;9.278;2022-09-09T07:35:34;2.50;;;1.20;;
9968;SDS011;5025;48.890;9.278;2022-09-09T07:38:03;2.37;;;1.37;;
9968;SDS011;5025;48.890;9.278;2022-09-09T07:40:31;1.20;;;1.10;;
9968;SDS011;5025;48.890;9.278;2022-09-09T07:42:58;2.53;;;1.50;;
9968;SDS011;5025;48.890;9.278;2022-09-09T07:45:24;1.00;;;1.00;;
9968;SDS011;5025;48.890;9.278;2022-09-09T07:47:49;1.43;;;1.33;;
9968;SDS011;5025;48.890;9.278;2022-09-09T07:50:15;1.60;;;1.40;;
9968;SDS011;5025;48.890;9.278;2022-09-09T07:52:41;1.57;;;1.40;;
9968;SDS011;5025;48.890;9.278;2022-09-09T07:55:06;3.90;;;1.40;;
9968;SDS011;5025;48.890;9.278;2022-09-09T07:57:31;1.60;;;1.33;;
9968;SDS011;5025;48.890;9.278;2022-09-09T07:59:57;1.20;;;1.10;;
9968;SDS011;5025;48.890;9.278;2022-09-09T08:02:22;1.30;;;1.20;;
9968;SDS011;5025;48.890;9.278;2022-09-09T08:04:48;1.30;;;1.20;;
9968;SDS011;5025;48.890;9.278;2022-09-09T08:07:14;2.53;;;1.47;;
9968;SDS011;5025;48.890;9.278;2022-09-09T08:09:41;1.73;;;1.43;;
9968;SDS011;5025;48.890;9.278;2022-09-09T08:12:06;1.50;;;1.40;;
9968;SDS011;5025;48.890;9.278;2022-09-09T08:14:33;1.93;;;1.27;;
9968;SDS011;5025;48.890;9.278;2022-09-09T08:16:59;1.30;;;1.20;;
9968;SDS011;5025;48.890;9.278;2022-09-09T08:19:26;1.33;;;1.23;;
9968;SDS011;5025;48.890;9.278;2022-09-09T08:21:54;1.40;;;1.30;;
9968;SDS011;5025;48.890;9.278;2022-09-09T08:24:19;1.33;;;1.23;;
9968;SDS011;5025;48.890;9.278;2022-09-09T08:26:45;1.50;;;1.20;;
9968;SDS011;5025;48.890;9.278;2022-09-09T08:29:14;1.60;;;1.50;;
9968;SDS011;5025;48.890;9.278;2022-09-09T08:31:44;1.33;;;1.23;;
9968;SDS011;5025;48.890;9.278;2022-09-09T08:34:11;1.07;;;1.07;;
9968;SDS011;5025;48.890;9.278;2022-09-09T08:36:38;3.17;;;1.20;;
9968;SDS011;5025;48.890;9.278;2022-09-09T08:39:08;1.83;;;1.30;;
9968;SDS011;5025;48.890;9.278;2022-09-09T08:41:48;1.40;;;1.30;;
9968;SDS011;5025;48.890;9.278;2022-09-09T08:52:36;1.77;;;1.30;;
9968;SDS011;5025;48.890;9.278;2022-09-09T08:55:05;2.53;;;1.40;;
9968;SDS011;5025;48.890;9.278;2022-09-09T08:57:46;1.20;;;1.10;;
9968;SDS011;5025;48.890;9.278;2022-09-09T09:00:14;1.00;;;1.00;;
9968;SDS011;5025;48.890;9.278;2022-09-09T09:02:42;1.33;;;1.23;;
9968;SDS011;5025;48.890;9.278;2022-09-09T09:10:51;1.77;;;1.20;;
9968;SDS011;5025;48.890;9.278;2022-09-09T09:13:25;1.40;;;1.30;;
9968;SDS011;5025;48.890;9.278;2022-09-09T09:15:55;1.57;;;1.10;;
9968;SDS011;5025;48.890;9.278;2022-09-09T09:18:25;1.63;;;1.40;;
9968;SDS011;5025;48.890;9.278;2022-09-09T09:23:24;2.47;;;1.50;;
9968;SDS011;5025;48.890;9.278;2022-09-09T09:25:52;3.13;;;1.30;;
9968;SDS011;5025;48.890;9.278;2022-09-09T09:28:27;3.40;;;1.47;;
9968;SDS011;5025;48.890;9.278;2022-09-09T09:30:59;2.37;;;1.70;;
9968;SDS011;5025;48.890;9.278;2022-09-09T09:36:11;1.97;;;1.20;;
9968;SDS011;5025;48.890;9.278;2022-09-09T09:38:40;2.80;;;1.30;;
9968;SDS011;5025;48.890;9.278;2022-09-09T09:41:30;2.50;;;1.27;;
9968;SDS011;5025;48.890;9.278;2022-09-09T09:43:56;2.50;;;1.17;;
9968;SDS011;5025;48.890;9.278;2022-09-09T09:46:22;3.30;;;1.30;;
9968;SDS011;5025;48.890;9.278;2022-09-09T09:49:03;2.23;;;1.33;;
9968;SDS011;5025;48.890;9.278;2022-09-09T09:51:33;1.93;;;1.27;;
9968;SDS011;5025;48.890;9.278;2022-09-09T09:57:09;3.47;;;1.40;;
9968;SDS011;5025;48.890;9.278;2022-09-09T09:59:37;1.87;;;1.13;;
9968;SDS011;5025;48.890;9.278;2022-09-09T10:02:22;1.20;;;1.03;;
9968;SDS011;5025;48.890;9.278;2022-09-09T10:07:37;1.33;;;0.87;;
9968;SDS011;5025;48.890;9.278;2022-09-09T10:10:04;1.93;;;0.80;;
9968;SDS011;5025;48.890;9.278;2022-09-09T10:17:52;2.67;;;1.43;;
9968;SDS011;5025;48.890;9.278;2022-09-09T10:20:28;2.00;;;1.20;;
9968;SDS011;5025;48.890;9.278;2022-09-09T10:34:13;1.67;;;1.03;;
9968;SDS011;5025;48.890;9.278;2022-09-09T10:37:00;1.50;;;0.93;;
9968;SDS011;5025;48.890;9.278;2022-09-09T10:39:34;3.33;;;1.10;;
9968;SDS011;5025;48.890;9.278;2022-09-09T10:57:29;1.57;;;1.00;;
9968;SDS011;5025;48.890;9.278;2022-09-09T11:00:01;1.77;;;1.20;;
9968;SDS011;5025;48.890;9.278;2022-09-09T11:02:31;0.90;;;0.90;;
9968;SDS011;5025;48.890;9.278;2022-09-09T11:05:00;2.43;;;1.20;;
9968;SDS011;5025;48.890;9.278;2022-09-09T11:07:44;2.50;;;1.30;;
9968;SDS011;5025;48.890;9.278;2022-09-09T11:10:36;2.27;;;0.80;;
9968;SDS011;5025;48.890;9.278;2022-09-09T11:13:12;0.97;;;0.87;;
9968;SDS011;5025;48.890;9.278;2022-09-09T11:15:44;1.60;;;1.03;;
9968;SDS011;5025;48.890;9.278;2022-09-09T11:18:19;2.03;;;1.03;;
9968;SDS011;5025;48.890;9.278;2022-09-09T11:20:52;3.30;;;1.30;;
9968;SDS011;5025;48.890;9.278;2022-09-09T11:23:33;2.17;;;1.10;;
9968;SDS011;5025;48.890;9.278;2022-09-09T11:26:05;2.10;;;1.00;;
9968;SDS011;5025;48.890;9.278;2022-09-09T11:28:43;3.77;;;1.53;;
9968;SDS011;5025;48.890;9.278;2022-09-09T11:34:17;4.83;;;1.57;;
9968;SDS011;5025;48.890;9.278;2022-09-09T11:37:00;4.60;;;1.50;;
9968;SDS011;5025;48.890;9.278;2022-09-09T11:42:34;6.50;;;1.80;;
9968;SDS011;5025;48.890;9.278;2022-09-09T11:47:56;2.43;;;1.40;;
9968;SDS011;5025;48.890;9.278;2022-09-09T11:52:48;1.77;;;0.97;;
9968;SDS011;5025;48.890;9.278;2022-09-09T11:55:25;2.23;;;1.20;;
9968;SDS011;5025;48.890;9.278;2022-09-09T12:03:34;1.77;;;0.83;;
9968;SDS011;5025;48.890;9.278;2022-09-09T12:06:27;1.50;;;0.80;;
9968;SDS011;5025;48.890;9.278;2022-09-09T12:09:08;0.87;;;0.70;;
9968;SDS011;5025;48.890;9.278;2022-09-09T12:11:42;0.97;;;0.67;;
9968;SDS011;5025;48.890;9.278;2022-09-09T12:14:18;1.17;;;1.10;;
9968;SDS011;5025;48.890;9.278;2022-09-09T12:19:39;0.87;;;0.60;;
9968;SDS011;5025;48.890;9.278;2022-09-09T12:22:15;0.63;;;0.60;;
9968;SDS011;5025;48.890;9.278;2022-09-09T12:27:45;0.50;;;0.50;;
9968;SDS011;5025;48.890;9.278;2022-09-09T12:33:23;0.87;;;0.50;;
9968;SDS011;5025;48.890;9.278;2022-09-09T12:35:54;0.60;;;0.60;;
9968;SDS011;5025;48.890;9.278;2022-09-09T12:38:24;0.43;;;0.43;;
9968;SDS011;5025;48.890;9.278;2022-09-09T12:40:57;1.40;;;0.60;;
9968;SDS011;5025;48.890;9.278;2022-09-09T12:43:23;1.50;;;0.70;;
9968;SDS011;5025;48.890;9.278;2022-09-09T12:45:51;1.40;;;0.67;;
9968;SDS011;5025;48.890;9.278;2022-09-09T12:48:34;1.73;;;0.63;;
9968;SDS011;5025;48.890;9.278;2022-09-09T12:51:02;0.70;;;0.70;;
9968;SDS011;5025;48.890;9.278;2022-09-09T12:53:35;0.63;;;0.60;;
9968;SDS011;5025;48.890;9.278;2022-09-09T12:56:03;0.60;;;0.60;;
9968;SDS011;5025;48.890;9.278;2022-09-09T12:58:32;0.70;;;0.70;;
9968;SDS011;5025;48.890;9.278;2022-09-09T13:00:58;0.70;;;0.70;;
9968;SDS011;5025;48.890;9.278;2022-09-09T13:03:24;1.67;;;0.90;;
9968;SDS011;5025;48.890;9.278;2022-09-09T13:05:51;0.70;;;0.70;;
9968;SDS011;5025;48.890;9.278;2022-09-09T13:08:18;0.97;;;0.60;;
9968;SDS011;5025;48.890;9.278;2022-09-09T13:10:49;0.90;;;0.70;;
9968;SDS011;5025;48.890;9.278;2022-09-09T13:13:20;0.67;;;0.67;;
9968;SDS011;5025;48.890;9.278;2022-09-09T13:15:52;0.70;;;0.70;;
9968;SDS011;5025;48.890;9.278;2022-09-09T13:18:21;0.87;;;0.80;;
9968;SDS011;5025;48.890;9.278;2022-09-09T13:20:49;1.07;;;0.80;;
9968;SDS011;5025;48.890;9.278;2022-09-09T13:23:15;1.30;;;0.70;;
9968;SDS011;5025;48.890;9.278;2022-09-09T13:25:52;1.17;;;0.60;;
9968;SDS011;5025;48.890;9.278;2022-09-09T13:28:20;1.53;;;0.80;;
9968;SDS011;5025;48.890;9.278;2022-09-09T13:30:56;1.10;;;0.80;;
9968;SDS011;5025;48.890;9.278;2022-09-09T13:33:28;1.40;;;0.67;;
9968;SDS011;5025;48.890;9.278;2022-09-09T13:36:08;1.57;;;0.73;;
9968;SDS011;5025;48.890;9.278;2022-09-09T13:38:36;0.80;;;0.80;;
9968;SDS011;5025;48.890;9.278;2022-09-09T13:41:08;1.53;;;0.90;;
9968;SDS011;5025;48.890;9.278;2022-09-09T13:43:53;1.10;;;0.80;;
9968;SDS011;5025;48.890;9.278;2022-09-09T13:46:39;1.27;;;1.17;;
9968;SDS011;5025;48.890;9.278;2022-09-09T13:51:35;1.30;;;0.70;;
9968;SDS011;5025;48.890;9.278;2022-09-09T13:54:08;0.97;;;0.77;;
9968;SDS011;5025;48.890;9.278;2022-09-09T13:56:35;1.47;;;1.07;;
9968;SDS011;5025;48.890;9.278;2022-09-09T13:59:03;0.60;;;0.60;;
9968;SDS011;5025;48.890;9.278;2022-09-09T14:01:29;1.10;;;0.83;;
9968;SDS011;5025;48.890;9.278;2022-09-09T14:03:56;1.10;;;0.90;;
9968;SDS011;5025;48.890;9.278;2022-09-09T14:06:21;1.70;;;0.60;;
9968;SDS011;5025;48.890;9.278;2022-09-09T14:08:48;1.67;;;0.80;;
9968;SDS011;5025;48.890;9.278;2022-09-09T14:11:15;1.37;;;0.80;;
9968;SDS011;5025;48.890;9.278;2022-09-09T14:13:41;1.63;;;0.70;;
9968;SDS011;5025;48.890;9.278;2022-09-09T14:16:06;1.87;;;1.00;;
9968;SDS011;5025;48.890;9.278;2022-09-09T14:18:31;2.43;;;1.00;;
9968;SDS011;5025;48.890;9.278;2022-09-09T14:20:57;2.23;;;0.97;;
9968;SDS011;5025;48.890;9.278;2022-09-09T14:23:23;1.50;;;0.90;;
9968;SDS011;5025;48.890;9.278;2022-09-09T14:25:49;0.90;;;0.80;;
9968;SDS011;5025;48.890;9.278;2022-09-09T14:28:15;0.80;;;0.80;;
9968;SDS011;5025;48.890;9.278;2022-09-09T14:30:41;2.60;;;1.10;;
9968;SDS011;5025;48.890;9.278;2022-09-09T14:33:09;1.07;;;0.83;;
9968;SDS011;5025;48.890;9.278;2022-09-09T14:35:36;1.03;;;0.93;;
9968;SDS011;5025;48.890;9.278;2022-09-09T14:38:02;1.13;;;1.00;;
9968;SDS011;5025;48.890;9.278;2022-09-09T14:40:28;1.70;;;0.90;;
9968;SDS011;5025;48.890;9.278;2022-09-09T14:42:53;0.70;;;0.70;;
9968;SDS011;5025;48.890;9.278;2022-09-09T14:45:19;1.30;;;0.70;;
9968;SDS011;5025;48.890;9.278;2022-09-09T14:47:46;1.23;;;0.80;;
9968;SDS011;5025;48.890;9.278;2022-09-09T14:50:11;0.87;;;0.60;;
9968;SDS011;5025;48.890;9.278;2022-09-09T14:52:37;1.00;;;0.70;;
9968;SDS011;5025;48.890;9.278;2022-09-09T14:55:03;1.40;;;0.90;;
9968;SDS011;5025;48.890;9.278;2022-09-09T14:57:28;1.20;;;1.00;;
9968;SDS011;5025;48.890;9.278;2022-09-09T14:59:54;0.80;;;0.80;;
9968;SDS011;5025;48.890;9.278;2022-09-09T15:02:19;0.70;;;0.67;;
9968;SDS011;5025;48.890;9.278;2022-09-09T15:04:44;0.97;;;0.90;;
9968;SDS011;5025;48.890;9.278;2022-09-09T15:07:10;0.77;;;0.60;;
9968;SDS011;5025;48.890;9.278;2022-09-09T15:09:36;0.93;;;0.80;;
9968;SDS011;5025;48.890;9.278;2022-09-09T15:12:02;1.63;;;0.83;;
9968;SDS011;5025;48.890;9.278;2022-09-09T15:14:27;1.70;;;0.97;;
9968;SDS011;5025;48.890;9.278;2022-09-09T15:16:53;0.97;;;0.80;;
9968;SDS011;5025;48.890;9.278;2022-09-09T15:19:18;1.80;;;0.50;;
9968;SDS011;5025;48.890;9.278;2022-09-09T15:21:43;1.10;;;0.90;;
9968;SDS011;5025;48.890;9.278;2022-09-09T15:24:09;0.80;;;0.80;;
9968;SDS011;5025;48.890;9.278;2022-09-09T15:26:35;1.00;;;0.70;;
9968;SDS011;5025;48.890;9.278;2022-09-09T15:29:03;0.93;;;0.73;;
9968;SDS011;5025;48.890;9.278;2022-09-09T15:31:30;0.80;;;0.80;;
9968;SDS011;5025;48.890;9.278;2022-09-09T15:34:03;0.90;;;0.70;;
9968;SDS011;5025;48.890;9.278;2022-09-09T15:36:31;0.60;;;0.60;;
9968;SDS011;5025;48.890;9.278;2022-09-09T15:38:58;2.50;;;1.00;;
9968;SDS011;5025;48.890;9.278;2022-09-09T15:41:24;1.43;;;0.80;;
9968;SDS011;5025;48.890;9.278;2022-09-09T15:43:51;1.03;;;0.73;;
9968;SDS011;5025;48.890;9.278;2022-09-09T15:46:23;1.03;;;0.80;;
9968;SDS011;5025;48.890;9.278;2022-09-09T15:48:54;0.70;;;0.70;;
9968;SDS011;5025;48.890;9.278;2022-09-09T15:51:21;0.93;;;0.80;;
9968;SDS011;5025;48.890;9.278;2022-09-09T15:53:48;0.60;;;0.60;;
9968;SDS011;5025;48.890;9.278;2022-09-09T15:56:13;1.03;;;0.70;;
9968;SDS011;5025;48.890;9.278;2022-09-09T15:58:39;0.80;;;0.80;;
9968;SDS011;5025;48.890;9.278;2022-09-09T16:01:08;1.73;;;0.80;;
9968;SDS011;5025;48.890;9.278;2022-09-09T16:03:40;0.53;;;0.53;;
9968;SDS011;5025;48.890;9.278;2022-09-09T16:06:07;0.50;;;0.50;;
9968;SDS011;5025;48.890;9.278;2022-09-09T16:08:34;0.77;;;0.70;;
9968;SDS011;5025;48.890;9.278;2022-09-09T16:11:11;0.63;;;0.63;;
9968;SDS011;5025;48.890;9.278;2022-09-09T16:13:42;1.43;;;0.60;;
9968;SDS011;5025;48.890;9.278;2022-09-09T16:16:12;0.60;;;0.60;;
9968;SDS011;5025;48.890;9.278;2022-09-09T16:18:40;0.87;;;0.70;;
9968;SDS011;5025;48.890;9.278;2022-09-09T16:21:08;0.77;;;0.77;;
9968;SDS011;5025;48.890;9.278;2022-09-09T16:23:39;0.87;;;0.77;;
9968;SDS011;5025;48.890;9.278;2022-09-09T16:26:04;1.17;;;0.90;;
9968;SDS011;5025;48.890;9.278;2022-09-09T16:28:30;1.43;;;0.80;;
9968;SDS011;5025;48.890;9.278;2022-09-09T16:30:55;3.07;;;1.07;;
9968;SDS011;5025;48.890;9.278;2022-09-09T16:33:20;2.27;;;0.63;;
9968;SDS011;5025;48.890;9.278;2022-09-09T16:35:47;5.13;;;0.90;;
9968;SDS011;5025;48.890;9.278;2022-09-09T16:38:14;2.27;;;0.60;;
9968;SDS011;5025;48.890;9.278;2022-09-09T16:40:39;2.90;;;0.40;;
9968;SDS011;5025;48.890;9.278;2022-09-09T16:43:06;0.50;;;0.40;;
9968;SDS011;5025;48.890;9.278;2022-09-09T16:45:32;0.47;;;0.40;;
9968;SDS011;5025;48.890;9.278;2022-09-09T16:47:59;0.40;;;0.40;;
9968;SDS011;5025;48.890;9.278;2022-09-09T16:50:25;1.03;;;0.40;;
9968;SDS011;5025;48.890;9.278;2022-09-09T16:52:51;0.40;;;0.40;;
9968;SDS011;5025;48.890;9.278;2022-09-09T16:55:17;1.43;;;0.50;;
9968;SDS011;5025;48.890;9.278;2022-09-09T16:57:45;1.13;;;0.60;;
9968;SDS011;5025;48.890;9.278;2022-09-09T17:00:13;0.50;;;0.40;;
9968;SDS011;5025;48.890;9.278;2022-09-09T17:02:40;1.57;;;0.70;;
9968;SDS011;5025;48.890;9.278;2022-09-09T17:05:05;0.67;;;0.67;;
9968;SDS011;5025;48.890;9.278;2022-09-09T17:07:30;0.77;;;0.60;;
9968;SDS011;5025;48.890;9.278;2022-09-09T17:09:57;0.90;;;0.60;;
9968;SDS011;5025;48.890;9.278;2022-09-09T17:12:22;0.57;;;0.57;;
9968;SDS011;5025;48.890;9.278;2022-09-09T17:14:48;1.37;;;0.50;;
9968;SDS011;5025;48.890;9.278;2022-09-09T17:17:13;0.47;;;0.40;;
9968;SDS011;5025;48.890;9.278;2022-09-09T17:19:38;0.30;;;0.30;;
9968;SDS011;5025;48.890;9.278;2022-09-09T17:22:03;0.67;;;0.30;;
9968;SDS011;5025;48.890;9.278;2022-09-09T17:24:29;0.50;;;0.40;;
9968;SDS011;5025;48.890;9.278;2022-09-09T17:26:54;1.33;;;0.70;;
9968;SDS011;5025;48.890;9.278;2022-09-09T17:29:20;0.73;;;0.73;;
9968;SDS011;5025;48.890;9.278;2022-09-09T17:31:46;1.00;;;0.97;;
9968;SDS011;5025;48.890;9.278;2022-09-09T17:34:11;1.00;;;1.00;;
9968;SDS011;5025;48.890;9.278;2022-09-09T17:36:37;0.93;;;0.93;;